createdAt,value
2023-05-17T00:03:34.734Z,13.39
2023-05-17T00:07:38.113Z,13.35
2023-05-17T00:11:41.559Z,13.34
2023-05-17T00:15:45.996Z,13.31
2023-05-17T00:19:49.215Z,13.29
2023-05-17T00:23:52.502Z,13.21
2023-05-17T00:27:56.107Z,13.23
2023-05-17T00:32:00.643Z,13.19
2023-05-17T00:36:04.156Z,13.19
2023-05-17T00:40:08.487Z,13.16
2023-05-17T00:44:11.896Z,13.12
2023-05-17T00:48:17.105Z,13.09
2023-05-17T00:52:20.723Z,13.06
2023-05-17T00:56:25.736Z,13.03
2023-05-17T01:00:29.467Z,13.00
2023-05-17T01:04:34.724Z,12.97
2023-05-17T01:08:38.346Z,12.95
2023-05-17T01:12:57.723Z,12.92
2023-05-17T01:17:04.350Z,12.90
2023-05-17T01:21:19.142Z,12.86
2023-05-17T01:25:40.971Z,12.84
2023-05-17T01:29:46.438Z,12.79
2023-05-17T01:33:49.628Z,12.74
2023-05-17T01:37:54.108Z,12.71
2023-05-17T01:42:05.077Z,12.65
2023-05-17T01:46:15.672Z,12.61
2023-05-17T01:50:23.337Z,12.57
2023-05-17T01:54:34.064Z,12.54
2023-05-17T01:58:46.698Z,12.51
2023-05-17T02:02:51.513Z,12.49
2023-05-17T02:06:54.526Z,12.44
2023-05-17T02:10:57.988Z,12.42
2023-05-17T02:15:01.045Z,12.38
2023-05-17T02:19:06.040Z,12.37
2023-05-17T02:23:09.207Z,12.32
2023-05-17T02:27:12.518Z,12.29
2023-05-17T02:31:15.795Z,12.26
2023-05-17T02:35:20.902Z,12.23
2023-05-17T02:39:24.424Z,12.22
2023-05-17T02:43:27.879Z,12.20
2023-05-17T02:47:31.107Z,12.16
2023-05-17T02:51:36.038Z,12.14
2023-05-17T02:55:39.276Z,12.11
2023-05-17T02:59:42.392Z,12.07
2023-05-17T03:03:45.564Z,12.04
2023-05-17T03:07:50.330Z,12.02
2023-05-17T03:11:53.443Z,12.00
2023-05-17T03:15:56.811Z,11.97
2023-05-17T03:19:59.807Z,11.97
2023-05-17T03:24:04.732Z,11.98
2023-05-17T03:28:07.958Z,11.95
2023-05-17T03:32:11.604Z,11.94
2023-05-17T03:36:14.972Z,11.91
2023-05-17T03:40:19.886Z,11.90
2023-05-17T03:44:22.805Z,11.89
2023-05-17T03:48:26.276Z,11.90
2023-05-17T03:52:29.458Z,11.93
2023-05-17T03:56:34.724Z,11.92
2023-05-17T04:00:38.080Z,11.94
2023-05-17T04:04:41.427Z,11.96
2023-05-17T04:08:44.614Z,12.00
2023-05-17T04:12:50.404Z,12.02
2023-05-17T04:16:53.467Z,12.03
2023-05-17T04:20:57.460Z,12.04
2023-05-17T04:25:00.482Z,12.07
2023-05-17T04:29:05.402Z,12.09
2023-05-17T04:33:10.500Z,12.10
2023-05-17T04:37:15.333Z,12.11
2023-05-17T04:41:18.491Z,12.13
2023-05-17T04:45:24.048Z,12.15
2023-05-17T04:49:27.124Z,12.15
2023-05-17T04:53:30.897Z,12.15
2023-05-17T04:57:34.091Z,12.16
2023-05-17T05:01:38.934Z,12.16
2023-05-17T05:05:41.882Z,12.18
2023-05-17T05:09:45.409Z,12.18
2023-05-17T05:13:48.343Z,12.18
2023-05-17T05:17:53.368Z,12.20
2023-05-17T05:21:56.558Z,12.20
2023-05-17T05:26:00.429Z,12.20
2023-05-17T05:30:04.323Z,12.21
2023-05-17T05:34:08.897Z,12.21
2023-05-17T05:38:11.989Z,12.21
2023-05-17T05:42:15.455Z,12.22
2023-05-17T05:46:18.707Z,12.23
2023-05-17T05:50:23.754Z,12.22
2023-05-17T05:54:27.217Z,12.18
2023-05-17T05:58:30.888Z,12.15
2023-05-17T06:02:35.310Z,12.12
2023-05-17T06:06:40.136Z,12.07
2023-05-17T06:10:43.577Z,12.03
2023-05-17T06:14:46.847Z,11.98
2023-05-17T06:18:51.623Z,11.96
2023-05-17T06:22:56.638Z,11.93
2023-05-17T06:27:00.561Z,11.89
2023-05-17T06:31:07.112Z,11.88
2023-05-17T06:35:11.955Z,11.86
2023-05-17T06:39:16.765Z,11.87
2023-05-17T06:43:20.058Z,11.87
2023-05-17T06:47:25.044Z,11.87
2023-05-17T06:51:30.397Z,11.87
2023-05-17T06:55:35.295Z,11.86
2023-05-17T06:59:38.962Z,11.83
2023-05-17T07:03:42.578Z,11.79
2023-05-17T07:07:46.029Z,11.80
2023-05-17T07:11:50.769Z,11.81
2023-05-17T07:15:54.937Z,11.81
2023-05-17T07:19:58.480Z,11.84
2023-05-17T07:24:01.719Z,11.87
2023-05-17T07:28:06.878Z,11.91
2023-05-17T07:32:10.592Z,11.93
2023-05-17T07:36:14.419Z,11.95
2023-05-17T07:40:18.289Z,11.98
2023-05-17T07:44:23.071Z,11.98
2023-05-17T07:48:27.133Z,12.03
2023-05-17T07:52:30.661Z,12.04
2023-05-17T07:56:34.104Z,12.06
2023-05-17T08:00:38.557Z,12.03
2023-05-17T08:04:42.295Z,12.01
2023-05-17T08:08:46.137Z,11.98
2023-05-17T08:12:49.434Z,11.94
2023-05-17T08:16:54.275Z,11.92
2023-05-17T08:20:57.784Z,11.88
2023-05-17T08:25:01.175Z,11.84
2023-05-17T08:29:04.892Z,11.86
2023-05-17T08:33:11.999Z,11.92
2023-05-17T08:37:15.255Z,11.91
2023-05-17T08:41:18.598Z,11.92
2023-05-17T08:45:22.755Z,11.95
2023-05-17T08:49:33.534Z,11.99
2023-05-17T08:53:37.159Z,12.01
2023-05-17T08:57:40.948Z,12.06
2023-05-17T09:01:46.505Z,12.07
2023-05-17T09:05:53.097Z,12.10
2023-05-17T09:09:56.787Z,12.16
2023-05-17T09:14:01.871Z,12.25
2023-05-17T09:18:05.338Z,12.38
2023-05-17T09:22:10.387Z,12.55
2023-05-17T09:26:16.352Z,12.71
2023-05-17T09:30:19.585Z,12.78
2023-05-17T09:34:24.087Z,12.86
2023-05-17T09:38:28.936Z,13.02
2023-05-17T09:42:34.722Z,13.18
2023-05-17T09:46:39.916Z,13.26
2023-05-17T09:50:47.825Z,13.21
2023-05-17T09:55:07.459Z,13.33
2023-05-17T09:59:14.006Z,13.46
2023-05-17T10:03:18.826Z,13.63
2023-05-17T10:07:22.652Z,13.70
2023-05-17T10:11:34.714Z,13.90
2023-05-17T10:15:39.256Z,13.99
2023-05-17T10:19:43.059Z,13.95
2023-05-17T10:23:48.035Z,13.84
2023-05-17T10:27:53.491Z,13.73
2023-05-17T10:31:58.337Z,13.63
2023-05-17T10:36:03.703Z,13.55
2023-05-17T10:40:13.687Z,13.48
2023-05-17T10:44:19.242Z,13.48
2023-05-17T10:48:24.107Z,13.47
2023-05-17T10:52:27.666Z,13.39
2023-05-17T10:56:31.997Z,13.48
2023-05-17T11:00:41.205Z,13.58
2023-05-17T11:04:46.380Z,13.64
2023-05-17T11:09:15.506Z,13.71
2023-05-17T11:13:28.251Z,13.79
2023-05-17T11:17:50.027Z,13.82
2023-05-17T11:21:53.643Z,13.90
2023-05-17T11:26:02.908Z,13.96
2023-05-17T11:30:11.514Z,13.94
2023-05-17T11:34:19.533Z,13.96
2023-05-17T11:38:26.369Z,13.96
2023-05-17T11:42:29.652Z,14.02
2023-05-17T11:46:36.099Z,14.01
2023-05-17T11:50:41.299Z,14.19
2023-05-17T11:54:45.202Z,14.14
2023-05-17T11:58:53.048Z,14.27
2023-05-17T12:02:58.168Z,14.30
2023-05-17T12:07:03.135Z,14.34
2023-05-17T12:11:07.668Z,14.41
2023-05-17T12:15:14.660Z,14.45
2023-05-17T12:19:22.726Z,14.58
2023-05-17T12:23:33.824Z,14.73
2023-05-17T12:27:37.733Z,14.89
2023-05-17T12:31:43.382Z,14.95
2023-05-17T12:35:48.730Z,14.99
2023-05-17T12:39:53.277Z,15.04
2023-05-17T12:44:13.646Z,15.07
2023-05-17T12:48:19.509Z,15.13
2023-05-17T12:52:24.355Z,15.22
2023-05-17T12:56:30.981Z,15.26
2023-05-17T13:00:34.735Z,15.29
2023-05-17T13:04:38.924Z,15.36
2023-05-17T13:08:44.149Z,15.39
2023-05-17T13:12:57.895Z,15.43
2023-05-17T13:17:01.669Z,15.47
2023-05-17T13:21:04.725Z,15.42
2023-05-17T13:25:08.238Z,15.48
2023-05-17T13:29:15.452Z,15.48
2023-05-17T13:33:19.072Z,15.38
2023-05-17T13:37:22.452Z,15.35
2023-05-17T13:41:25.540Z,15.32
2023-05-17T13:45:30.192Z,15.42
2023-05-17T13:49:33.526Z,15.43
2023-05-17T13:53:39.137Z,15.43
2023-05-17T13:57:42.946Z,15.42
2023-05-17T14:01:47.884Z,15.47
2023-05-17T14:05:53.344Z,15.50
2023-05-17T14:09:56.951Z,15.59
2023-05-17T14:14:01.721Z,15.69
2023-05-17T14:18:07.930Z,15.71
2023-05-17T14:22:11.858Z,15.69
2023-05-17T14:26:14.805Z,15.69
2023-05-17T14:30:18.219Z,15.60
2023-05-17T14:34:22.869Z,15.47
2023-05-17T14:38:35.936Z,15.41
2023-05-17T14:42:41.901Z,15.26
2023-05-17T14:46:45.362Z,15.13
2023-05-17T14:50:49.664Z,14.98
2023-05-17T14:54:53.668Z,14.83
2023-05-17T14:58:57.905Z,14.73
2023-05-17T15:03:01.827Z,14.62
2023-05-17T15:07:07.697Z,14.56
2023-05-17T15:11:11.362Z,14.48
2023-05-17T15:15:14.927Z,14.38
2023-05-17T15:19:18.822Z,14.34
2023-05-17T15:23:23.460Z,14.26
2023-05-17T15:27:35.880Z,14.19
2023-05-17T15:31:39.397Z,14.14
2023-05-17T15:35:44.430Z,14.09
2023-05-17T15:39:49.298Z,14.07
2023-05-17T15:43:54.030Z,14.01
2023-05-17T15:47:57.573Z,13.95
2023-05-17T15:52:00.999Z,13.92
2023-05-17T15:56:06.664Z,13.90
2023-05-17T16:00:11.528Z,13.90
2023-05-17T16:04:15.077Z,13.95
2023-05-17T16:08:20.730Z,13.97
2023-05-17T16:12:28.706Z,14.00
2023-05-17T16:16:32.674Z,13.98
2023-05-17T16:20:35.792Z,14.00
2023-05-17T16:24:39.254Z,13.98
2023-05-17T16:28:44.293Z,13.98
2023-05-17T16:32:48.468Z,13.95
2023-05-17T16:36:51.671Z,13.91
2023-05-17T16:40:55.282Z,13.86
2023-05-17T16:45:00.373Z,13.80
2023-05-17T16:49:07.596Z,13.71
2023-05-17T16:53:10.909Z,13.63
2023-05-17T16:57:15.025Z,13.58
2023-05-17T17:01:21.544Z,13.50
2023-05-17T17:05:24.978Z,13.45
2023-05-17T17:09:30.137Z,13.37
2023-05-17T17:13:33.572Z,13.33
2023-05-17T17:17:39.461Z,13.25
2023-05-17T17:21:44.057Z,13.17
2023-05-17T17:25:48.622Z,13.15
2023-05-17T17:29:52.413Z,13.10
2023-05-17T17:33:58.400Z,13.06
2023-05-17T17:38:03.481Z,13.02
2023-05-17T17:42:07.388Z,12.96
2023-05-17T17:46:11.035Z,12.92
2023-05-17T17:50:16.676Z,12.86
2023-05-17T17:54:20.272Z,12.80
2023-05-17T17:58:29.116Z,12.75
2023-05-17T18:02:32.555Z,12.70
2023-05-17T18:06:37.744Z,12.66
2023-05-17T18:10:42.436Z,12.59
2023-05-17T18:14:46.744Z,12.56
2023-05-17T18:18:50.228Z,12.52
2023-05-17T18:22:55.111Z,12.47
2023-05-17T18:26:58.637Z,12.41
2023-05-17T18:31:01.657Z,12.38
2023-05-17T18:35:05.437Z,12.34
2023-05-17T18:39:12.422Z,12.34
2023-05-17T18:43:16.250Z,12.31
2023-05-17T18:47:20.168Z,12.30
2023-05-17T18:51:23.520Z,12.30
2023-05-17T18:55:28.651Z,12.28
2023-05-17T18:59:32.030Z,12.26
2023-05-17T19:03:35.879Z,12.23
2023-05-17T19:07:44.647Z,12.20
2023-05-17T19:11:50.030Z,12.19
2023-05-17T19:15:55.113Z,12.17
2023-05-17T19:19:58.071Z,12.13
2023-05-17T19:24:02.453Z,12.09
2023-05-17T19:28:07.410Z,12.07
2023-05-17T19:32:10.803Z,12.02
2023-05-17T19:36:15.953Z,11.97
2023-05-17T19:40:24.060Z,11.94
2023-05-17T19:44:28.602Z,11.92
2023-05-17T19:48:32.144Z,11.90
2023-05-17T19:52:37.517Z,11.86
2023-05-17T19:56:42.089Z,11.85
2023-05-17T20:00:46.633Z,11.83
2023-05-17T20:04:49.805Z,11.81
2023-05-17T20:08:53.074Z,11.78
2023-05-17T20:12:56.548Z,11.75
2023-05-17T20:17:01.825Z,11.74
2023-05-17T20:21:05.323Z,11.70
2023-05-17T20:25:10.299Z,11.67
2023-05-17T20:29:13.953Z,11.64
2023-05-17T20:33:22.631Z,11.61
2023-05-17T20:37:26.529Z,11.56
2023-05-17T20:41:29.909Z,11.57
2023-05-17T20:45:34.433Z,11.62
2023-05-17T20:49:39.258Z,11.64
2023-05-17T20:53:43.042Z,11.65
2023-05-17T20:57:47.118Z,11.67
2023-05-17T21:01:52.843Z,11.68
2023-05-17T21:05:58.150Z,11.69
2023-05-17T21:10:01.369Z,11.69
2023-05-17T21:14:04.473Z,11.69
2023-05-17T21:18:08.569Z,11.68
2023-05-17T21:22:13.297Z,11.67
2023-05-17T21:26:17.062Z,11.65
2023-05-17T21:30:20.871Z,11.64
2023-05-17T21:34:25.648Z,11.63
2023-05-17T21:38:31.573Z,11.63
2023-05-17T21:42:35.344Z,11.63
2023-05-17T21:46:38.549Z,11.64
2023-05-17T21:50:41.719Z,11.66
2023-05-17T21:54:46.743Z,11.67
2023-05-17T21:58:50.156Z,11.65
2023-05-17T22:02:53.576Z,11.64
2023-05-17T22:06:57.735Z,11.66
2023-05-17T22:11:02.513Z,11.68
2023-05-17T22:15:07.700Z,11.69
2023-05-17T22:19:11.300Z,11.70
2023-05-17T22:23:15.984Z,11.69
2023-05-17T22:27:21.111Z,11.68
2023-05-17T22:31:25.303Z,11.64
2023-05-17T22:35:28.566Z,11.65
2023-05-17T22:39:33.303Z,11.65
2023-05-17T22:43:38.266Z,11.64
2023-05-17T22:47:42.898Z,11.63
2023-05-17T22:51:47.088Z,11.63
2023-05-17T22:55:50.796Z,11.61
2023-05-17T22:59:55.868Z,11.62
2023-05-17T23:03:59.096Z,11.62
2023-05-17T23:08:02.500Z,11.61
2023-05-17T23:12:07.175Z,11.60
2023-05-17T23:16:14.190Z,11.60
2023-05-17T23:20:18.229Z,11.59
2023-05-17T23:24:23.532Z,11.57
2023-05-17T23:28:27.106Z,11.59
2023-05-17T23:32:34.417Z,11.59
2023-05-17T23:36:37.922Z,11.61
2023-05-17T23:44:57.566Z,11.65
2023-05-17T23:49:04.599Z,11.66
2023-05-17T23:53:09.937Z,11.66
2023-05-17T23:57:13.632Z,11.66
